createdAt,value
2023-04-02T00:03:12.332Z,45.60
2023-04-02T00:08:21.093Z,45.60
2023-04-02T00:13:30.961Z,45.70
2023-04-02T00:18:34.266Z,45.50
2023-04-02T00:23:38.380Z,45.60
2023-04-02T00:28:43.124Z,45.70
2023-04-02T00:33:46.333Z,45.60
2023-04-02T00:38:49.374Z,45.70
2023-04-02T00:43:54.667Z,45.70
2023-04-02T00:49:01.207Z,45.70
2023-04-02T00:54:06.784Z,45.40
2023-04-02T00:59:20.313Z,45.70
2023-04-02T01:04:34.048Z,45.60
2023-04-02T01:09:56.530Z,45.60
2023-04-02T01:15:07.984Z,46.10
2023-04-02T01:20:27.717Z,46.00
2023-04-02T01:25:36.291Z,46.30
2023-04-02T01:30:41.512Z,45.90
2023-04-02T01:35:47.018Z,45.50
2023-04-02T01:40:54.906Z,45.70
2023-04-02T01:45:59.998Z,45.80
2023-04-02T01:51:08.670Z,46.20
2023-04-02T01:56:11.505Z,46.30
2023-04-02T02:01:17.528Z,46.30
2023-04-02T02:06:20.763Z,46.10
2023-04-02T02:11:26.033Z,45.70
2023-04-02T02:16:31.960Z,46.20
2023-04-02T02:21:39.860Z,45.70
2023-04-02T02:26:43.783Z,46.20
2023-04-02T02:31:48.772Z,46.30
2023-04-02T02:36:55.505Z,46.30
2023-04-02T02:42:01.859Z,46.50
2023-04-02T02:47:10.672Z,46.20
2023-04-02T02:52:18.111Z,46.40
2023-04-02T02:57:24.366Z,46.40
2023-04-02T03:02:29.731Z,46.30
2023-04-02T03:07:33.139Z,46.40
2023-04-02T03:12:42.814Z,46.30
2023-04-02T03:17:49.881Z,46.20
2023-04-02T03:22:56.807Z,46.30
2023-04-02T03:28:03.334Z,46.20
2023-04-02T03:33:12.225Z,46.30
2023-04-02T03:38:19.087Z,46.30
2023-04-02T03:43:25.156Z,46.20
2023-04-02T03:48:32.677Z,46.20
2023-04-02T03:53:35.828Z,46.40
2023-04-02T03:58:41.332Z,46.40
2023-04-02T04:03:47.205Z,46.40
2023-04-02T04:08:54.702Z,46.50
2023-04-02T04:14:00.577Z,46.50
2023-04-02T04:19:08.124Z,46.30
2023-04-02T04:24:17.599Z,46.60
2023-04-02T04:29:32.775Z,46.30
2023-04-02T04:34:46.526Z,46.50
2023-04-02T04:39:54.402Z,46.50
2023-04-02T04:45:01.299Z,46.80
2023-04-02T04:50:13.305Z,46.40
2023-04-02T04:55:27.268Z,46.40
2023-04-02T05:00:36.837Z,46.40
2023-04-02T05:05:41.483Z,46.70
2023-04-02T05:10:47.817Z,46.50
2023-04-02T05:15:55.106Z,46.40
2023-04-02T05:21:05.205Z,46.50
2023-04-02T05:26:11.583Z,46.40
2023-04-02T05:31:17.518Z,46.50
2023-04-02T05:36:24.055Z,46.50
2023-04-02T05:41:28.906Z,46.70
2023-04-02T05:46:36.055Z,46.50
2023-04-02T05:51:43.567Z,46.20
2023-04-02T05:56:48.896Z,46.40
2023-04-02T06:01:55.721Z,46.70
2023-04-02T06:07:02.918Z,46.60
2023-04-02T06:12:14.598Z,46.60
2023-04-02T06:17:19.252Z,46.60
2023-04-02T06:22:28.668Z,46.50
2023-04-02T06:27:31.752Z,46.60
2023-04-02T06:32:34.753Z,46.60
2023-04-02T06:37:39.969Z,46.40
2023-04-02T06:42:45.628Z,45.90
2023-04-02T06:47:51.055Z,46.60
2023-04-02T06:52:57.592Z,46.50
2023-04-02T06:58:00.382Z,46.50
2023-04-02T07:03:06.647Z,45.90
2023-04-02T07:08:11.204Z,46.60
2023-04-02T07:13:15.913Z,45.70
2023-04-02T07:18:25.132Z,45.80
2023-04-02T07:23:29.333Z,45.80
2023-04-02T07:28:32.250Z,45.90
2023-04-02T07:33:35.080Z,45.90
2023-04-02T07:38:39.239Z,46.10
2023-04-02T07:43:43.154Z,45.80
2023-04-02T07:48:46.392Z,46.00
2023-04-02T07:53:55.629Z,45.70
2023-04-02T07:58:58.737Z,45.90
2023-04-02T08:04:01.897Z,46.10
2023-04-02T08:09:07.114Z,46.00
2023-04-02T08:14:10.263Z,46.00
2023-04-02T08:19:13.214Z,45.80
2023-04-02T08:24:19.082Z,45.70
2023-04-02T08:29:22.347Z,45.90
2023-04-02T08:34:25.383Z,45.90
2023-04-02T08:39:33.072Z,45.90
2023-04-02T08:44:44.922Z,45.80
2023-04-02T08:49:52.448Z,45.80
2023-04-02T08:54:58.059Z,45.90
2023-04-02T09:00:10.149Z,45.80
2023-04-02T09:05:18.744Z,45.90
2023-04-02T09:10:27.154Z,45.90
2023-04-02T09:15:34.132Z,45.70
2023-04-02T09:20:37.518Z,45.50
2023-04-02T09:25:54.108Z,45.70
2023-04-02T09:31:10.316Z,45.70
2023-04-02T09:36:35.309Z,46.00
2023-04-02T09:41:39.546Z,45.60
2023-04-02T09:46:49.474Z,45.90
2023-04-02T09:52:08.494Z,45.70
2023-04-02T09:57:23.987Z,45.80
2023-04-02T10:02:32.108Z,45.70
2023-04-02T10:07:43.998Z,45.80
2023-04-02T10:12:51.173Z,45.90
2023-04-02T10:18:01.177Z,45.80
2023-04-02T10:23:06.368Z,45.70
2023-04-02T10:28:17.585Z,45.80
2023-04-02T10:33:25.739Z,45.70
2023-04-02T10:38:43.472Z,45.70
2023-04-02T10:44:16.759Z,45.70
2023-04-02T10:49:31.577Z,45.60
2023-04-02T10:54:40.344Z,45.80
2023-04-02T10:59:47.340Z,46.00
2023-04-02T11:04:51.594Z,46.10
2023-04-02T11:09:57.498Z,46.10
2023-04-02T11:15:01.834Z,46.30
2023-04-02T11:20:37.991Z,46.30
2023-04-02T11:25:41.318Z,46.30
2023-04-02T11:30:47.653Z,46.30
2023-04-02T11:35:50.543Z,46.30
2023-04-02T11:40:54.864Z,46.40
2023-04-02T11:46:00.124Z,46.20
2023-04-02T11:51:04.692Z,45.90
2023-04-02T11:56:10.372Z,46.00
2023-04-02T12:01:56.689Z,46.30
2023-04-02T12:07:10.855Z,46.20
2023-04-02T12:12:18.978Z,46.20
2023-04-02T12:17:27.460Z,46.30
2023-04-02T12:22:32.635Z,46.10
2023-04-02T12:27:38.119Z,46.30
2023-04-02T12:32:42.371Z,46.20
2023-04-02T12:37:45.469Z,46.10
2023-04-02T12:42:48.273Z,46.00
2023-04-02T12:47:53.302Z,45.80
2023-04-02T12:52:58.977Z,45.90
2023-04-02T12:58:01.870Z,45.90
2023-04-02T13:03:21.323Z,46.20
2023-04-02T13:08:27.136Z,46.10
2023-04-02T13:13:34.475Z,46.20
2023-04-02T13:18:39.867Z,46.40
2023-04-02T13:23:42.896Z,46.40
2023-04-02T13:28:57.103Z,46.30
2023-04-02T13:34:01.575Z,46.60
2023-04-02T13:39:05.681Z,46.50
2023-04-02T13:44:08.635Z,46.60
2023-04-02T13:49:12.824Z,46.80
2023-04-02T13:54:20.440Z,46.70
2023-04-02T13:59:23.372Z,46.60
2023-04-02T14:04:30.844Z,46.80
2023-04-02T14:09:40.413Z,46.40
2023-04-02T14:15:00.604Z,46.50
2023-04-02T14:20:16.314Z,46.60
2023-04-02T14:25:23.993Z,46.70
2023-04-02T14:30:28.688Z,46.50
2023-04-02T14:35:36.592Z,46.50
2023-04-02T14:40:42.148Z,46.50
2023-04-02T14:46:00.975Z,47.00
2023-04-02T14:51:07.420Z,46.60
2023-04-02T14:56:11.563Z,46.90
2023-04-02T15:01:17.567Z,47.00
2023-04-02T15:06:24.625Z,47.00
2023-04-02T15:11:32.041Z,47.10
2023-04-02T15:16:36.504Z,47.10
2023-04-02T15:21:57.470Z,47.00
2023-04-02T15:27:12.020Z,47.10
2023-04-02T15:32:28.946Z,47.00
2023-04-02T15:37:36.886Z,47.00
2023-04-02T15:42:40.884Z,47.50
2023-04-02T15:48:08.464Z,47.30
2023-04-02T15:53:23.493Z,47.40
2023-04-02T15:58:39.758Z,47.20
2023-04-02T16:04:05.044Z,47.20
2023-04-02T16:09:16.515Z,47.30
2023-04-02T16:14:25.512Z,47.30
2023-04-02T16:19:33.236Z,47.40
2023-04-02T16:24:37.438Z,47.50
2023-04-02T16:29:54.887Z,47.40
2023-04-02T16:35:23.900Z,47.40
2023-04-02T16:40:34.907Z,47.30
2023-04-02T16:45:44.983Z,47.50
2023-04-02T16:50:56.096Z,47.60
2023-04-02T16:56:22.812Z,47.30
2023-04-02T17:01:29.695Z,47.60
2023-04-02T17:06:39.443Z,47.60
2023-04-02T17:11:48.990Z,47.60
2023-04-02T17:16:53.987Z,47.70
2023-04-02T17:21:59.906Z,47.80
2023-04-02T17:27:08.731Z,47.90
2023-04-02T17:32:17.120Z,47.80
2023-04-02T17:37:28.078Z,47.80
2023-04-02T17:42:41.725Z,48.00
2023-04-02T17:47:51.381Z,48.10
2023-04-02T17:52:58.275Z,47.80
2023-04-02T17:58:07.796Z,48.50
2023-04-02T18:03:26.836Z,48.50
2023-04-02T18:08:35.013Z,48.10
2023-04-02T18:13:42.526Z,48.70
2023-04-02T18:19:03.408Z,48.30
2023-04-02T18:24:22.521Z,48.70
2023-04-02T18:29:31.760Z,48.60
2023-04-02T18:35:00.215Z,48.30
2023-04-02T18:40:28.056Z,48.80
2023-04-02T18:45:40.713Z,48.70
2023-04-02T18:50:46.810Z,48.90
2023-04-02T18:55:52.860Z,49.10
2023-04-02T19:00:57.288Z,48.80
2023-04-02T19:06:02.937Z,49.10
2023-04-02T19:11:08.597Z,49.00
2023-04-02T19:16:31.550Z,49.00
2023-04-02T19:21:40.810Z,49.00
2023-04-02T19:26:49.770Z,49.00
2023-04-02T19:31:57.997Z,48.80
2023-04-02T19:37:04.410Z,49.20
2023-04-02T19:42:12.482Z,49.00
2023-04-02T19:47:17.630Z,49.00
2023-04-02T19:52:21.146Z,49.10
2023-04-02T19:57:24.001Z,49.10
2023-04-02T20:02:28.205Z,49.00
2023-04-02T20:07:31.668Z,49.00
2023-04-02T20:12:34.538Z,49.10
2023-04-02T20:17:38.777Z,49.00
2023-04-02T20:22:41.675Z,49.00
2023-04-02T20:27:44.469Z,49.20
2023-04-02T20:32:48.717Z,49.00
2023-04-02T20:37:51.637Z,49.10
2023-04-02T20:42:54.516Z,49.20
2023-04-02T20:47:59.011Z,49.20
2023-04-02T20:53:02.633Z,49.20
2023-04-02T20:58:05.530Z,48.70
2023-04-02T21:03:10.430Z,49.30
2023-04-02T21:08:13.465Z,48.90
2023-04-02T21:13:16.269Z,49.10
2023-04-02T21:18:20.453Z,49.00
2023-04-02T21:23:23.244Z,49.20
2023-04-02T21:28:26.187Z,49.30
2023-04-02T21:33:31.095Z,49.10
2023-04-02T21:38:34.177Z,49.40
2023-04-02T21:43:37.042Z,49.10
2023-04-02T21:48:41.860Z,49.30
2023-04-02T21:53:45.163Z,49.40
2023-04-02T21:58:48.505Z,49.40
2023-04-02T22:03:52.894Z,49.50
2023-04-02T22:08:57.705Z,49.10
2023-04-02T22:14:03.220Z,49.00
2023-04-02T22:19:08.977Z,49.60
2023-04-02T22:24:14.251Z,49.20
2023-04-02T22:29:17.300Z,49.40
2023-04-02T22:34:21.484Z,49.50
2023-04-02T22:39:24.333Z,49.50
2023-04-02T22:44:27.162Z,49.30
2023-04-02T22:49:31.889Z,49.70
2023-04-02T22:54:34.749Z,49.50
2023-04-02T22:59:37.536Z,49.60
2023-04-02T23:04:41.701Z,49.70
2023-04-02T23:09:44.615Z,49.90
2023-04-02T23:14:47.540Z,49.70
2023-04-02T23:19:52.189Z,49.60
2023-04-02T23:24:55.035Z,49.70
2023-04-02T23:29:57.876Z,49.70
2023-04-02T23:35:02.009Z,49.60
2023-04-02T23:40:06.063Z,49.80
2023-04-02T23:45:10.050Z,49.40
2023-04-02T23:50:14.234Z,49.90
2023-04-02T23:55:17.132Z,49.70
